Time;durP1;ratioP1;P1;durP2;ratioP2;P2;SDS_P1;SDS_P2;PMS_P1;PMS_P2;Temp;Humidity;BMP_temperature;BMP_pressure;BME280_temperature;BME280_humidity;BME280_pressure;Samples;Min_cycle;Max_cycle;Signal;HPM_P1;HPM_P2
2023/11/18 00:00:26;;;;;;;1.95;1.00;;;;;;;;;;5004788;28;20403;-86
2023/11/18 00:02:52;;;;;;;1.75;1.02;;;;;;;;;;5006787;28;20017;-91
2023/11/18 00:05:17;;;;;;;2.30;1.02;;;;;;;;;;5006006;28;20466;-92
2023/11/18 00:07:43;;;;;;;2.10;1.20;;;;;;;;;;5004684;28;20043;-93
2023/11/18 00:10:08;;;;;;;1.38;0.90;;;;;;;;;;5002283;28;20082;-93
2023/11/18 00:12:34;;;;;;;1.88;0.93;;;;;;;;;;4989106;28;20777;-91
2023/11/18 00:15:03;;;;;;;1.35;0.90;;;;;;;;;;4988446;28;20041;-91
2023/11/18 00:17:28;;;;;;;1.42;0.82;;;;;;;;;;5020465;28;20060;-91
2023/11/18 00:19:53;;;;;;;1.40;1.02;;;;;;;;;;4986505;28;20116;-90
2023/11/18 00:22:19;;;;;;;1.85;0.80;;;;;;;;;;4988600;28;20017;-91
2023/11/18 00:24:44;;;;;;;1.70;0.85;;;;;;;;;;5019388;28;20017;-91
2023/11/18 00:27:10;;;;;;;1.50;0.90;;;;;;;;;;5009478;28;20025;-92
2023/11/18 00:29:37;;;;;;;1.45;0.98;;;;;;;;;;4993716;28;20315;-92
2023/11/18 00:32:03;;;;;;;1.83;0.90;;;;;;;;;;5009946;28;20503;-91
2023/11/18 00:34:29;;;;;;;1.63;1.00;;;;;;;;;;4998207;28;20045;-92
2023/11/18 00:36:56;;;;;;;1.20;0.80;;;;;;;;;;5003811;28;20513;-91
2023/11/18 00:39:21;;;;;;;1.38;0.88;;;;;;;;;;5035177;28;20068;-91
2023/11/18 00:41:46;;;;;;;1.13;0.70;;;;;;;;;;5013645;28;20392;-91
2023/11/18 00:44:13;;;;;;;1.13;0.80;;;;;;;;;;5016518;28;20028;-92
2023/11/18 00:46:38;;;;;;;1.50;1.00;;;;;;;;;;4997555;28;20056;-91
2023/11/18 00:49:04;;;;;;;1.30;0.90;;;;;;;;;;5017477;28;20045;-92
2023/11/18 00:51:31;;;;;;;3.00;0.88;;;;;;;;;;5025128;28;20119;-92
2023/11/18 00:53:56;;;;;;;1.20;0.70;;;;;;;;;;5018192;28;20140;-92
2023/11/18 00:56:22;;;;;;;1.13;0.80;;;;;;;;;;5035203;28;20125;-92
2023/11/18 00:58:47;;;;;;;1.60;0.80;;;;;;;;;;5039447;28;20497;-91
2023/11/18 01:01:13;;;;;;;1.50;0.70;;;;;;;;;;5043479;28;20029;-92
2023/11/18 01:03:38;;;;;;;1.13;0.70;;;;;;;;;;5016742;28;20055;-91
2023/11/18 01:06:04;;;;;;;1.27;0.80;;;;;;;;;;5016599;28;20042;-90
2023/11/18 01:08:30;;;;;;;1.42;0.80;;;;;;;;;;5035400;28;20037;-91
2023/11/18 01:10:55;;;;;;;1.27;0.80;;;;;;;;;;5037152;28;20785;-91
2023/11/18 01:13:20;;;;;;;1.27;0.73;;;;;;;;;;5039005;28;20361;-92
2023/11/18 01:15:46;;;;;;;1.30;0.70;;;;;;;;;;5035367;28;20045;-93
2023/11/18 01:18:11;;;;;;;1.15;0.68;;;;;;;;;;5032800;28;20041;-92
2023/11/18 01:20:37;;;;;;;1.42;0.80;;;;;;;;;;5033530;28;20029;-92
2023/11/18 01:23:02;;;;;;;1.05;0.60;;;;;;;;;;5014853;28;20478;-92
2023/11/18 01:25:29;;;;;;;1.65;0.90;;;;;;;;;;5035350;28;20042;-92
2023/11/18 01:27:54;;;;;;;1.30;0.75;;;;;;;;;;5031435;28;20046;-91
2023/11/18 01:30:19;;;;;;;1.25;0.77;;;;;;;;;;5035498;28;20153;-92
2023/11/18 01:32:46;;;;;;;1.00;0.60;;;;;;;;;;5006589;28;20588;-92
2023/11/18 01:35:12;;;;;;;1.48;0.70;;;;;;;;;;5015009;28;20045;-92
2023/11/18 01:37:37;;;;;;;1.42;0.73;;;;;;;;;;5014476;28;20042;-92
2023/11/18 01:40:06;;;;;;;1.05;0.68;;;;;;;;;;5033958;28;20188;-92
2023/11/18 01:42:32;;;;;;;1.05;0.68;;;;;;;;;;5050972;28;20566;-93
2023/11/18 01:44:59;;;;;;;0.82;0.60;;;;;;;;;;5041791;28;20033;-92
2023/11/18 01:47:26;;;;;;;1.15;0.70;;;;;;;;;;5035265;28;20026;-92
2023/11/18 01:49:59;;;;;;;1.05;0.60;;;;;;;;;;5032442;28;20151;-92
2023/11/18 01:52:26;;;;;;;0.85;0.50;;;;;;;;;;5034985;28;20075;-93
2023/11/18 01:54:54;;;;;;;0.80;0.52;;;;;;;;;;5025421;28;20041;-92
2023/11/18 01:57:20;;;;;;;1.08;0.60;;;;;;;;;;5030739;28;20033;-93
2023/11/18 01:59:45;;;;;;;1.10;0.70;;;;;;;;;;5040965;28;20063;-90
2023/11/18 02:02:11;;;;;;;1.15;0.70;;;;;;;;;;5065259;28;20033;-91
2023/11/18 02:04:36;;;;;;;1.02;0.60;;;;;;;;;;4995865;28;20029;-92
2023/11/18 02:07:04;;;;;;;0.98;0.60;;;;;;;;;;5028548;28;20041;-91
2023/11/18 02:09:30;;;;;;;0.68;0.50;;;;;;;;;;4994348;28;20088;-91
2023/11/18 02:12:20;;;;;;;0.73;0.50;;;;;;;;;;5002879;28;20057;-92
2023/11/18 02:14:45;;;;;;;1.23;0.63;;;;;;;;;;5002607;28;20532;-92
2023/11/18 02:17:11;;;;;;;1.00;0.75;;;;;;;;;;5011633;28;20506;-92
2023/11/18 02:19:37;;;;;;;0.90;0.50;;;;;;;;;;4999953;28;20044;-91
2023/11/18 02:22:02;;;;;;;1.23;0.70;;;;;;;;;;5010756;28;20044;-92
2023/11/18 02:24:30;;;;;;;0.75;0.50;;;;;;;;;;4998750;28;20422;-93
2023/11/18 02:26:56;;;;;;;1.02;0.70;;;;;;;;;;5002775;28;20045;-92
2023/11/18 02:29:21;;;;;;;0.80;0.50;;;;;;;;;;5018004;28;20151;-92
2023/11/18 02:31:47;;;;;;;1.10;0.55;;;;;;;;;;5014905;28;20702;-92
2023/11/18 02:34:13;;;;;;;1.20;0.70;;;;;;;;;;5038326;28;20041;-93
2023/11/18 02:36:48;;;;;;;1.10;0.68;;;;;;;;;;5012236;28;20034;-92
2023/11/18 02:39:17;;;;;;;0.88;0.57;;;;;;;;;;5011893;28;20040;-91
2023/11/18 02:41:45;;;;;;;1.00;0.60;;;;;;;;;;4985501;28;20048;-92
2023/11/18 02:44:10;;;;;;;0.80;0.47;;;;;;;;;;4988729;28;20033;-91
2023/11/18 02:46:36;;;;;;;0.85;0.50;;;;;;;;;;5009545;28;20092;-91
2023/11/18 02:49:02;;;;;;;0.77;0.50;;;;;;;;;;5010497;28;20423;-91
2023/11/18 02:51:28;;;;;;;1.10;0.57;;;;;;;;;;5029672;28;20045;-92
2023/11/18 02:53:54;;;;;;;0.80;0.55;;;;;;;;;;5016629;28;20040;-91
2023/11/18 02:56:19;;;;;;;0.70;0.50;;;;;;;;;;5014271;28;20403;-92
2023/11/18 02:58:45;;;;;;;0.83;0.50;;;;;;;;;;5035593;28;20044;-92
2023/11/18 03:01:10;;;;;;;0.90;0.50;;;;;;;;;;5028664;28;20341;-92
2023/11/18 03:03:36;;;;;;;0.85;0.50;;;;;;;;;;5006629;28;20503;-92
2023/11/18 03:06:01;;;;;;;2.97;0.70;;;;;;;;;;5046995;28;20044;-92
2023/11/18 03:08:34;;;;;;;0.80;0.57;;;;;;;;;;5031532;28;20033;-92
2023/11/18 03:11:22;;;;;;;1.00;0.60;;;;;;;;;;5038022;28;20145;-91
2023/11/18 03:13:48;;;;;;;0.80;0.50;;;;;;;;;;5029755;28;20128;-91
2023/11/18 03:16:14;;;;;;;0.60;0.50;;;;;;;;;;5013803;28;20036;-91
2023/11/18 03:18:39;;;;;;;0.90;0.47;;;;;;;;;;5031991;28;20013;-91
2023/11/18 03:21:06;;;;;;;0.70;0.50;;;;;;;;;;5024443;28;20025;-92
2023/11/18 03:23:32;;;;;;;1.30;0.50;;;;;;;;;;5052078;28;20045;-92
2023/11/18 03:25:57;;;;;;;1.00;0.50;;;;;;;;;;5034392;28;20195;-91
2023/11/18 03:28:23;;;;;;;0.60;0.43;;;;;;;;;;5035714;28;20036;-92
2023/11/18 03:30:48;;;;;;;0.75;0.50;;;;;;;;;;5035005;28;20079;-91
2023/11/18 03:33:14;;;;;;;0.63;0.43;;;;;;;;;;5028357;28;20588;-92
2023/11/18 03:35:39;;;;;;;0.70;0.40;;;;;;;;;;5072601;28;20041;-88
2023/11/18 03:38:04;;;;;;;0.82;0.50;;;;;;;;;;5038650;28;20108;-90
2023/11/18 03:40:30;;;;;;;0.88;0.40;;;;;;;;;;5038105;28;20049;-89
2023/11/18 03:42:56;;;;;;;1.00;0.60;;;;;;;;;;5035383;28;20021;-88
2023/11/18 03:45:22;;;;;;;0.55;0.40;;;;;;;;;;5020172;28;20040;-90
2023/11/18 03:47:49;;;;;;;0.98;0.57;;;;;;;;;;5035188;28;20036;-90
2023/11/18 03:50:15;;;;;;;1.23;0.60;;;;;;;;;;5055421;28;20043;-91
2023/11/18 03:52:40;;;;;;;0.68;0.50;;;;;;;;;;5058101;28;20113;-91
2023/11/18 03:55:06;;;;;;;1.02;0.60;;;;;;;;;;5023770;28;20026;-91
2023/11/18 03:57:31;;;;;;;0.70;0.40;;;;;;;;;;5056252;28;20025;-91
2023/11/18 03:59:56;;;;;;;0.70;0.50;;;;;;;;;;5024596;28;20026;-90
2023/11/18 04:02:22;;;;;;;1.00;0.60;;;;;;;;;;5024780;28;20027;-90
2023/11/18 04:04:48;;;;;;;0.60;0.40;;;;;;;;;;5013995;28;20769;-93
2023/11/18 04:07:13;;;;;;;0.65;0.47;;;;;;;;;;4999444;28;20021;-91
2023/11/18 04:09:41;;;;;;;0.73;0.50;;;;;;;;;;5042158;28;20029;-91
2023/11/18 04:12:07;;;;;;;0.80;0.70;;;;;;;;;;5015167;28;20037;-90
2023/11/18 04:14:33;;;;;;;0.60;0.40;;;;;;;;;;5005084;28;20069;-92
2023/11/18 04:16:58;;;;;;;0.85;0.50;;;;;;;;;;5008076;28;20040;-91
2023/11/18 04:19:23;;;;;;;0.73;0.60;;;;;;;;;;5015097;28;20498;-91
2023/11/18 04:21:56;;;;;;;0.60;0.50;;;;;;;;;;5000976;28;20041;-91
2023/11/18 04:24:22;;;;;;;0.93;0.52;;;;;;;;;;5007679;28;20044;-91
2023/11/18 04:26:49;;;;;;;0.60;0.50;;;;;;;;;;5030877;28;20033;-91
2023/11/18 04:29:14;;;;;;;0.90;0.52;;;;;;;;;;5049651;28;20032;-91
2023/11/18 04:31:40;;;;;;;0.73;0.40;;;;;;;;;;5044020;28;20093;-91
2023/11/18 04:34:05;;;;;;;0.70;0.50;;;;;;;;;;5048615;28;20045;-90
2023/11/18 04:36:31;;;;;;;0.73;0.52;;;;;;;;;;5001165;28;20045;-89
2023/11/18 04:38:56;;;;;;;0.80;0.52;;;;;;;;;;5042690;28;20308;-91
2023/11/18 04:41:22;;;;;;;0.90;0.50;;;;;;;;;;5021150;28;20044;-91
2023/11/18 04:43:48;;;;;;;1.05;0.63;;;;;;;;;;5048141;28;20033;-91
2023/11/18 04:46:13;;;;;;;1.05;0.50;;;;;;;;;;5033552;28;20357;-90
2023/11/18 04:48:39;;;;;;;0.93;0.60;;;;;;;;;;5040860;28;20036;-91
2023/11/18 04:51:05;;;;;;;1.52;0.60;;;;;;;;;;5033098;28;20280;-91
2023/11/18 04:53:31;;;;;;;0.60;0.43;;;;;;;;;;5042408;28;20145;-91
2023/11/18 04:55:57;;;;;;;0.80;0.50;;;;;;;;;;5031484;28;20466;-91
2023/11/18 04:58:22;;;;;;;0.40;0.32;;;;;;;;;;5023946;28;20059;-91
2023/11/18 05:00:48;;;;;;;1.10;0.70;;;;;;;;;;4995250;28;20033;-91
2023/11/18 05:03:13;;;;;;;1.10;0.60;;;;;;;;;;5041222;28;20279;-92
2023/11/18 05:05:38;;;;;;;0.50;0.47;;;;;;;;;;5030589;28;20075;-92
2023/11/18 05:08:06;;;;;;;0.52;0.47;;;;;;;;;;5036073;28;20055;-91
2023/11/18 05:10:31;;;;;;;0.70;0.40;;;;;;;;;;5017559;28;20040;-92
2023/11/18 05:12:56;;;;;;;1.20;0.60;;;;;;;;;;5031943;28;20034;-91
2023/11/18 05:15:26;;;;;;;0.80;0.50;;;;;;;;;;5024692;28;20065;-91
2023/11/18 05:17:51;;;;;;;0.80;0.50;;;;;;;;;;5035651;28;20653;-89
2023/11/18 05:20:17;;;;;;;1.00;0.65;;;;;;;;;;5030688;28;20036;-92
2023/11/18 05:22:42;;;;;;;0.70;0.40;;;;;;;;;;4994772;28;20041;-91
2023/11/18 05:25:09;;;;;;;1.02;0.40;;;;;;;;;;5034049;28;20033;-90
2023/11/18 05:27:34;;;;;;;0.70;0.50;;;;;;;;;;5011963;28;20037;-91
2023/11/18 05:30:00;;;;;;;0.70;0.50;;;;;;;;;;5010054;28;20034;-91
2023/11/18 05:32:28;;;;;;;0.65;0.50;;;;;;;;;;5011309;28;20041;-91
2023/11/18 05:34:54;;;;;;;0.50;0.40;;;;;;;;;;5013352;28;20037;-90
2023/11/18 05:37:20;;;;;;;0.70;0.50;;;;;;;;;;5035406;28;20065;-92
2023/11/18 05:39:46;;;;;;;1.02;0.60;;;;;;;;;;5021373;28;20065;-91
2023/11/18 05:42:11;;;;;;;0.60;0.50;;;;;;;;;;5030058;28;20064;-92
2023/11/18 05:44:39;;;;;;;0.90;0.60;;;;;;;;;;5012228;28;20124;-91
2023/11/18 05:47:04;;;;;;;0.75;0.50;;;;;;;;;;5031363;28;20037;-90
2023/11/18 05:49:29;;;;;;;1.05;0.70;;;;;;;;;;4992844;28;20491;-92
2023/11/18 05:51:56;;;;;;;0.68;0.50;;;;;;;;;;5026637;28;20033;-92
2023/11/18 05:54:21;;;;;;;1.20;0.50;;;;;;;;;;5029243;28;20045;-90
2023/11/18 05:56:46;;;;;;;1.45;0.50;;;;;;;;;;5009909;28;20037;-91
2023/11/18 05:59:13;;;;;;;1.50;0.50;;;;;;;;;;5006166;28;20045;-87
2023/11/18 06:01:38;;;;;;;0.88;0.55;;;;;;;;;;5022063;28;20072;-92
2023/11/18 06:04:04;;;;;;;0.50;0.40;;;;;;;;;;5007555;28;20061;-87
2023/11/18 06:06:31;;;;;;;0.85;0.40;;;;;;;;;;5017600;28;20052;-88
2023/11/18 06:08:58;;;;;;;0.55;0.40;;;;;;;;;;5005430;28;20132;-87
2023/11/18 06:11:24;;;;;;;0.90;0.43;;;;;;;;;;5021209;28;20034;-87
2023/11/18 06:13:50;;;;;;;0.60;0.43;;;;;;;;;;5006084;28;20048;-86
2023/11/18 06:16:16;;;;;;;0.80;0.50;;;;;;;;;;5022976;28;20569;-87
2023/11/18 06:18:42;;;;;;;0.65;0.40;;;;;;;;;;4987084;28;20029;-87
2023/11/18 06:21:08;;;;;;;0.50;0.30;;;;;;;;;;5021787;28;20057;-90
2023/11/18 06:23:34;;;;;;;0.63;0.40;;;;;;;;;;5005617;28;20030;-90
2023/11/18 06:26:00;;;;;;;0.68;0.30;;;;;;;;;;5019917;28;20036;-90
2023/11/18 06:28:26;;;;;;;0.73;0.45;;;;;;;;;;5020531;28;20034;-87
2023/11/18 06:30:51;;;;;;;0.65;0.40;;;;;;;;;;5021253;28;20033;-87
2023/11/18 06:33:17;;;;;;;1.03;0.50;;;;;;;;;;5003984;28;20033;-87
2023/11/18 06:35:44;;;;;;;0.52;0.35;;;;;;;;;;5005447;28;20304;-83
2023/11/18 06:38:12;;;;;;;0.50;0.35;;;;;;;;;;4993256;28;20103;-92
2023/11/18 06:40:38;;;;;;;0.60;0.30;;;;;;;;;;5025000;28;21481;-90
2023/11/18 06:43:10;;;;;;;0.90;0.40;;;;;;;;;;5023100;28;20045;-93
2023/11/18 06:45:37;;;;;;;0.52;0.30;;;;;;;;;;5007841;28;20037;-87
2023/11/18 06:48:03;;;;;;;0.70;0.40;;;;;;;;;;5006588;28;20080;-84
2023/11/18 06:50:44;;;;;;;0.85;0.40;;;;;;;;;;5028266;28;20113;-89
2023/11/18 06:53:10;;;;;;;3.90;0.35;;;;;;;;;;5023737;28;20068;-84
2023/11/18 06:55:36;;;;;;;0.88;0.43;;;;;;;;;;5009485;28;20052;-85
2023/11/18 06:58:02;;;;;;;0.75;0.35;;;;;;;;;;4994596;28;20042;-87
2023/11/18 07:00:28;;;;;;;1.10;0.50;;;;;;;;;;5019139;28;20039;-82
2023/11/18 07:02:54;;;;;;;1.63;0.30;;;;;;;;;;5017002;28;20041;-89
2023/11/18 07:05:20;;;;;;;0.80;0.30;;;;;;;;;;5026080;28;20083;-93
2023/11/18 07:07:47;;;;;;;0.57;0.32;;;;;;;;;;4999348;28;20034;-93
2023/11/18 07:10:13;;;;;;;2.05;0.40;;;;;;;;;;5009307;28;20029;-92
2023/11/18 07:12:38;;;;;;;3.22;0.40;;;;;;;;;;5018878;28;20036;-90
2023/11/18 07:15:04;;;;;;;2.85;0.35;;;;;;;;;;5021690;28;20422;-91
2023/11/18 07:17:29;;;;;;;0.68;0.30;;;;;;;;;;5019602;28;20037;-88
2023/11/18 07:19:55;;;;;;;0.90;0.30;;;;;;;;;;5024044;28;20038;-87
2023/11/18 07:22:20;;;;;;;1.38;0.40;;;;;;;;;;5009376;28;20034;-85
2023/11/18 07:24:46;;;;;;;0.43;0.30;;;;;;;;;;5026493;28;20022;-89
2023/11/18 07:27:13;;;;;;;0.70;0.30;;;;;;;;;;5026961;28;20045;-87
2023/11/18 07:29:39;;;;;;;0.65;0.28;;;;;;;;;;5020412;28;20293;-83
2023/11/18 07:32:10;;;;;;;0.90;0.30;;;;;;;;;;5023760;28;20037;-90
2023/11/18 07:34:35;;;;;;;0.43;0.30;;;;;;;;;;4995193;28;20041;-89
2023/11/18 07:37:01;;;;;;;0.70;0.50;;;;;;;;;;5031092;28;20045;-86
2023/11/18 07:39:43;;;;;;;1.20;0.30;;;;;;;;;;5031544;28;20056;-88
2023/11/18 07:42:09;;;;;;;1.02;0.30;;;;;;;;;;5012854;28;20206;-82
2023/11/18 07:44:34;;;;;;;0.60;0.38;;;;;;;;;;5025663;28;20188;-82
2023/11/18 07:46:59;;;;;;;0.40;0.22;;;;;;;;;;5010261;28;20017;-83
2023/11/18 07:49:26;;;;;;;0.60;0.20;;;;;;;;;;5023718;28;20018;-85
2023/11/18 07:51:51;;;;;;;0.57;0.30;;;;;;;;;;5004386;28;20029;-87
2023/11/18 07:54:18;;;;;;;0.40;0.20;;;;;;;;;;5009880;28;20037;-90
2023/11/18 07:56:46;;;;;;;0.20;0.20;;;;;;;;;;5006401;28;20029;-90
2023/11/18 07:59:15;;;;;;;0.50;0.28;;;;;;;;;;4993600;28;20040;-85
2023/11/18 08:01:46;;;;;;;0.90;0.40;;;;;;;;;;5023882;28;20315;-87
2023/11/18 08:04:14;;;;;;;0.60;0.22;;;;;;;;;;5027473;28;20068;-90
2023/11/18 08:06:40;;;;;;;0.60;0.40;;;;;;;;;;5037232;28;20792;-89
2023/11/18 08:09:12;;;;;;;0.85;0.30;;;;;;;;;;5032318;28;20040;-88
2023/11/18 08:11:41;;;;;;;0.82;0.30;;;;;;;;;;5039941;28;20064;-89
2023/11/18 08:14:08;;;;;;;1.77;0.30;;;;;;;;;;5002011;28;20041;-88
2023/11/18 08:16:34;;;;;;;1.77;0.25;;;;;;;;;;5032777;28;20045;-92
2023/11/18 08:18:59;;;;;;;4.43;0.30;;;;;;;;;;5026676;28;20047;-85
2023/11/18 08:21:25;;;;;;;0.40;0.20;;;;;;;;;;5043196;28;20068;-92
2023/11/18 08:23:50;;;;;;;2.10;0.30;;;;;;;;;;5037470;28;20333;-77
2023/11/18 08:26:15;;;;;;;1.00;0.30;;;;;;;;;;5037097;28;20046;-88
2023/11/18 08:28:41;;;;;;;1.02;0.55;;;;;;;;;;5037961;28;20080;-89
2023/11/18 08:31:09;;;;;;;0.40;0.23;;;;;;;;;;5013706;28;20037;-88
2023/11/18 08:33:34;;;;;;;1.48;0.30;;;;;;;;;;5039483;28;20284;-90
2023/11/18 08:36:01;;;;;;;1.20;0.30;;;;;;;;;;5020580;28;20141;-90
2023/11/18 08:38:27;;;;;;;1.55;0.30;;;;;;;;;;5014162;28;20128;-90
2023/11/18 08:40:53;;;;;;;2.10;0.30;;;;;;;;;;5017528;28;20039;-91
2023/11/18 08:43:20;;;;;;;0.90;0.30;;;;;;;;;;5002394;28;20053;-91
2023/11/18 08:45:45;;;;;;;1.45;0.20;;;;;;;;;;5034130;28;20061;-85
2023/11/18 08:48:11;;;;;;;0.65;0.20;;;;;;;;;;5027529;28;20044;-85
2023/11/18 08:50:36;;;;;;;0.87;0.30;;;;;;;;;;5030435;28;20049;-91
2023/11/18 08:53:04;;;;;;;1.50;0.35;;;;;;;;;;5033805;28;20410;-89
2023/11/18 08:55:40;;;;;;;1.50;0.40;;;;;;;;;;5011497;28;20061;-87
2023/11/18 08:58:18;;;;;;;1.80;0.22;;;;;;;;;;5031128;28;20038;-85
2023/11/18 09:00:47;;;;;;;2.15;0.38;;;;;;;;;;5031350;28;20061;-90
2023/11/18 09:03:34;;;;;;;0.80;0.30;;;;;;;;;;5018472;28;20097;-80
2023/11/18 09:06:03;;;;;;;1.83;0.40;;;;;;;;;;5021544;28;20040;-90
2023/11/18 09:08:36;;;;;;;0.85;0.20;;;;;;;;;;5031145;28;20071;-86
2023/11/18 09:11:11;;;;;;;0.40;0.30;;;;;;;;;;4991898;28;20042;-83
2023/11/18 09:13:36;;;;;;;1.63;0.30;;;;;;;;;;5015216;28;20033;-87
2023/11/18 09:16:02;;;;;;;1.42;0.50;;;;;;;;;;5023180;28;20052;-88
2023/11/18 09:18:33;;;;;;;3.38;0.40;;;;;;;;;;5032230;28;20045;-86
2023/11/18 09:21:00;;;;;;;0.63;0.20;;;;;;;;;;5018589;28;20037;-91
2023/11/18 09:23:27;;;;;;;1.13;0.20;;;;;;;;;;5001073;28;20029;-84
2023/11/18 09:25:53;;;;;;;0.80;0.20;;;;;;;;;;5020365;28;20029;-84
2023/11/18 09:28:19;;;;;;;0.88;0.40;;;;;;;;;;5016956;28;20129;-87
2023/11/18 09:30:53;;;;;;;0.88;0.45;;;;;;;;;;5008243;28;20045;-86
2023/11/18 09:33:33;;;;;;;1.05;0.38;;;;;;;;;;5006255;28;20030;-81
2023/11/18 09:35:58;;;;;;;0.70;0.30;;;;;;;;;;5026827;28;20072;-86
2023/11/18 09:38:35;;;;;;;0.85;0.28;;;;;;;;;;5029158;28;20033;-86
2023/11/18 09:41:02;;;;;;;1.02;0.50;;;;;;;;;;5025852;28;20041;-92
2023/11/18 09:43:32;;;;;;;0.90;0.40;;;;;;;;;;5022184;28;20075;-89
2023/11/18 09:46:03;;;;;;;0.50;0.30;;;;;;;;;;5010269;28;20042;-87
2023/11/18 09:48:28;;;;;;;0.85;0.32;;;;;;;;;;5022298;28;20029;-84
2023/11/18 09:50:57;;;;;;;0.85;0.38;;;;;;;;;;5019527;28;20022;-86
2023/11/18 09:53:25;;;;;;;1.63;0.40;;;;;;;;;;5020596;28;20108;-85
2023/11/18 09:55:59;;;;;;;2.53;0.38;;;;;;;;;;5024014;28;20046;-81
2023/11/18 09:58:25;;;;;;;0.68;0.40;;;;;;;;;;5028316;28;20037;-83
2023/11/18 10:00:50;;;;;;;1.15;0.30;;;;;;;;;;5009198;28;20290;-87
2023/11/18 10:03:16;;;;;;;1.67;0.40;;;;;;;;;;4995314;28;20034;-84
2023/11/18 10:05:42;;;;;;;3.60;0.57;;;;;;;;;;5009974;28;20611;-90
2023/11/18 10:08:08;;;;;;;2.08;0.50;;;;;;;;;;5026570;28;20025;-86
2023/11/18 10:10:36;;;;;;;1.10;0.52;;;;;;;;;;5005382;28;20195;-86
2023/11/18 10:13:04;;;;;;;0.90;0.30;;;;;;;;;;5009120;28;20661;-89
2023/11/18 10:15:31;;;;;;;1.20;0.40;;;;;;;;;;4995392;28;20051;-89
2023/11/18 10:18:09;;;;;;;1.85;0.50;;;;;;;;;;5002366;28;20069;-84
2023/11/18 10:20:47;;;;;;;1.00;0.55;;;;;;;;;;5009971;28;20040;-91
2023/11/18 10:23:19;;;;;;;2.25;0.52;;;;;;;;;;5014412;28;20030;-81
2023/11/18 10:25:49;;;;;;;2.28;0.50;;;;;;;;;;4994092;28;20037;-81
2023/11/18 10:28:32;;;;;;;2.38;0.40;;;;;;;;;;5007982;28;20039;-79
2023/11/18 10:31:03;;;;;;;2.00;0.60;;;;;;;;;;4995980;28;20036;-81
2023/11/18 10:33:30;;;;;;;1.90;0.52;;;;;;;;;;5025642;28;20517;-78
2023/11/18 10:35:55;;;;;;;1.55;0.70;;;;;;;;;;5019992;28;20561;-78
2023/11/18 10:38:25;;;;;;;0.95;0.50;;;;;;;;;;5021566;28;20057;-80
2023/11/18 10:40:50;;;;;;;1.10;0.57;;;;;;;;;;5025526;28;20129;-84
2023/11/18 10:43:16;;;;;;;1.52;0.52;;;;;;;;;;5004675;28;20176;-81
2023/11/18 10:45:42;;;;;;;4.25;0.60;;;;;;;;;;5018514;28;20063;-79
2023/11/18 10:48:07;;;;;;;1.60;0.45;;;;;;;;;;5002806;28;20497;-80
2023/11/18 10:50:33;;;;;;;3.97;0.50;;;;;;;;;;5008152;28;20026;-81
2023/11/18 10:53:00;;;;;;;2.45;0.65;;;;;;;;;;5008456;28;20032;-80
2023/11/18 10:55:48;;;;;;;1.55;0.43;;;;;;;;;;5000059;28;20042;-81
2023/11/18 10:58:14;;;;;;;1.55;0.68;;;;;;;;;;5025759;28;20067;-85
2023/11/18 11:00:48;;;;;;;1.33;0.55;;;;;;;;;;5005538;28;20025;-82
2023/11/18 11:03:14;;;;;;;1.40;0.50;;;;;;;;;;5028809;28;20105;-82
2023/11/18 11:05:41;;;;;;;1.73;0.60;;;;;;;;;;5040993;28;20044;-84
2023/11/18 11:08:07;;;;;;;1.15;0.52;;;;;;;;;;5012653;28;20045;-85
2023/11/18 11:10:33;;;;;;;1.15;0.50;;;;;;;;;;5002494;28;20044;-78
2023/11/18 11:13:01;;;;;;;1.97;0.40;;;;;;;;;;5010386;28;20033;-79
2023/11/18 11:15:31;;;;;;;2.60;0.65;;;;;;;;;;4993740;28;20292;-81
2023/11/18 11:18:08;;;;;;;1.30;0.40;;;;;;;;;;5019848;28;20542;-82
2023/11/18 11:20:35;;;;;;;3.70;0.52;;;;;;;;;;5005834;28;20038;-83
2023/11/18 11:23:21;;;;;;;2.58;0.75;;;;;;;;;;5027225;28;20033;-81
2023/11/18 11:26:13;;;;;;;1.70;0.40;;;;;;;;;;5023044;28;20529;-82
2023/11/18 11:28:46;;;;;;;1.92;0.50;;;;;;;;;;5025344;28;20037;-81
2023/11/18 11:31:22;;;;;;;2.05;0.60;;;;;;;;;;5021177;28;20120;-79
2023/11/18 11:33:53;;;;;;;1.88;0.52;;;;;;;;;;5003288;28;20033;-81
2023/11/18 11:36:22;;;;;;;2.35;0.50;;;;;;;;;;5019746;28;20033;-77
2023/11/18 11:38:48;;;;;;;1.40;0.40;;;;;;;;;;4985638;28;20040;-77
2023/11/18 11:41:19;;;;;;;2.47;0.70;;;;;;;;;;5006972;28;20033;-79
2023/11/18 11:43:50;;;;;;;1.45;0.60;;;;;;;;;;4999731;28;20133;-77
2023/11/18 11:46:20;;;;;;;2.45;0.55;;;;;;;;;;5007920;28;20018;-76
2023/11/18 11:48:47;;;;;;;1.42;0.60;;;;;;;;;;4994153;28;20176;-77
2023/11/18 11:51:20;;;;;;;2.40;0.73;;;;;;;;;;4985814;28;20534;-80
2023/11/18 11:54:15;;;;;;;1.73;0.60;;;;;;;;;;5011517;28;20037;-81
2023/11/18 11:56:49;;;;;;;2.63;0.65;;;;;;;;;;5021889;28;20145;-76
2023/11/18 11:59:29;;;;;;;2.17;0.60;;;;;;;;;;5018823;28;20541;-76
2023/11/18 12:01:55;;;;;;;2.25;0.73;;;;;;;;;;5001563;28;20048;-77
2023/11/18 12:04:22;;;;;;;1.92;0.60;;;;;;;;;;5017070;28;20055;-78
2023/11/18 12:06:53;;;;;;;1.17;0.55;;;;;;;;;;4984352;28;20125;-77
2023/11/18 12:09:21;;;;;;;0.90;0.40;;;;;;;;;;5001478;28;20030;-77
2023/11/18 12:11:48;;;;;;;3.30;0.50;;;;;;;;;;4988807;28;20033;-79
2023/11/18 12:14:32;;;;;;;1.63;0.52;;;;;;;;;;5003819;28;20069;-79
2023/11/18 12:17:13;;;;;;;1.48;0.60;;;;;;;;;;4984774;28;20033;-80
2023/11/18 12:19:48;;;;;;;1.50;0.50;;;;;;;;;;5017977;28;20034;-75
2023/11/18 12:22:18;;;;;;;1.70;0.60;;;;;;;;;;4993180;28;20033;-83
2023/11/18 12:24:58;;;;;;;1.55;0.70;;;;;;;;;;5010576;28;20398;-79
2023/11/18 12:27:39;;;;;;;1.10;0.60;;;;;;;;;;5016783;28;20038;-82
2023/11/18 12:30:09;;;;;;;1.90;0.60;;;;;;;;;;5036365;28;20034;-82
2023/11/18 12:32:54;;;;;;;1.90;0.60;;;;;;;;;;5024494;28;20033;-84
2023/11/18 12:35:22;;;;;;;2.33;0.50;;;;;;;;;;5026424;28;20068;-81
2023/11/18 12:37:57;;;;;;;1.05;0.43;;;;;;;;;;4997392;28;20037;-80
2023/11/18 12:40:24;;;;;;;1.63;0.55;;;;;;;;;;5029825;28;20469;-81
2023/11/18 12:43:04;;;;;;;1.90;0.60;;;;;;;;;;5029522;28;20037;-81
2023/11/18 12:45:37;;;;;;;2.50;0.50;;;;;;;;;;5003736;28;20809;-81
2023/11/18 12:48:11;;;;;;;2.45;0.63;;;;;;;;;;5010610;28;20046;-80
2023/11/18 12:50:36;;;;;;;1.98;0.45;;;;;;;;;;5028006;28;20140;-81
2023/11/18 12:53:02;;;;;;;1.05;0.32;;;;;;;;;;4995498;28;20497;-80
2023/11/18 12:55:29;;;;;;;1.43;0.40;;;;;;;;;;5029475;28;20050;-83
2023/11/18 12:57:54;;;;;;;2.78;0.50;;;;;;;;;;5024109;28;20630;-82
2023/11/18 13:00:26;;;;;;;1.88;0.50;;;;;;;;;;5006340;28;20144;-83
2023/11/18 13:02:52;;;;;;;0.98;0.50;;;;;;;;;;5006224;28;20141;-83
2023/11/18 13:05:17;;;;;;;1.17;0.50;;;;;;;;;;4992394;28;20099;-82
2023/11/18 13:07:44;;;;;;;2.07;0.60;;;;;;;;;;5022834;28;20034;-83
2023/11/18 13:10:15;;;;;;;1.92;0.63;;;;;;;;;;4991709;28;20322;-83
2023/11/18 13:12:42;;;;;;;1.05;0.50;;;;;;;;;;5002423;28;20112;-82
2023/11/18 13:15:08;;;;;;;4.15;0.73;;;;;;;;;;4990064;28;20140;-83
2023/11/18 13:17:34;;;;;;;1.23;0.68;;;;;;;;;;5002254;28;20230;-81
2023/11/18 13:20:13;;;;;;;3.42;0.60;;;;;;;;;;5010029;28;20116;-85
2023/11/18 13:22:39;;;;;;;1.17;0.65;;;;;;;;;;5008579;28;20045;-84
2023/11/18 13:25:04;;;;;;;1.83;0.63;;;;;;;;;;5007450;28;20064;-81
2023/11/18 13:27:32;;;;;;;2.30;0.70;;;;;;;;;;4996976;28;20046;-82
2023/11/18 13:30:05;;;;;;;1.95;0.65;;;;;;;;;;5013981;28;20033;-82
2023/11/18 13:32:30;;;;;;;2.30;0.77;;;;;;;;;;5006982;28;20103;-81
2023/11/18 13:34:55;;;;;;;3.33;1.30;;;;;;;;;;5026922;28;20026;-81
2023/11/18 13:37:22;;;;;;;3.03;0.60;;;;;;;;;;5021496;28;20379;-83
2023/11/18 13:39:56;;;;;;;2.03;0.60;;;;;;;;;;5016446;28;20025;-81
2023/11/18 13:42:26;;;;;;;2.40;0.55;;;;;;;;;;5012752;28;20018;-81
2023/11/18 13:44:52;;;;;;;2.17;0.90;;;;;;;;;;5031008;28;20046;-81
2023/11/18 13:47:33;;;;;;;3.13;0.82;;;;;;;;;;5020780;28;20118;-81
2023/11/18 13:49:58;;;;;;;2.35;0.75;;;;;;;;;;5029346;28;20034;-82
2023/11/18 13:52:25;;;;;;;3.53;0.90;;;;;;;;;;5016036;28;20041;-82
2023/11/18 13:55:00;;;;;;;1.40;0.73;;;;;;;;;;5004947;28;20037;-82
2023/11/18 13:57:26;;;;;;;1.65;0.80;;;;;;;;;;5033994;28;20506;-82
2023/11/18 13:59:52;;;;;;;1.95;0.80;;;;;;;;;;5033895;28;20057;-81
2023/11/18 14:02:17;;;;;;;4.03;1.13;;;;;;;;;;5029109;28;20041;-82
2023/11/18 14:04:44;;;;;;;2.85;1.00;;;;;;;;;;5018666;28;20521;-81
2023/11/18 14:07:10;;;;;;;2.13;0.88;;;;;;;;;;5011721;28;20030;-81
2023/11/18 14:09:41;;;;;;;1.55;0.80;;;;;;;;;;5043382;28;20036;-81
2023/11/18 14:12:10;;;;;;;2.85;0.90;;;;;;;;;;5016891;28;20041;-80
2023/11/18 14:14:37;;;;;;;2.95;0.90;;;;;;;;;;5035475;28;20052;-82
2023/11/18 14:17:02;;;;;;;2.25;0.80;;;;;;;;;;5052419;28;20041;-82
2023/11/18 14:19:28;;;;;;;2.72;0.70;;;;;;;;;;5045621;28;20038;-79
2023/11/18 14:21:53;;;;;;;2.63;0.90;;;;;;;;;;5025009;28;20071;-79
2023/11/18 14:24:19;;;;;;;3.53;0.90;;;;;;;;;;5026479;28;20045;-79
2023/11/18 14:26:45;;;;;;;2.97;0.90;;;;;;;;;;5045835;28;20034;-81
2023/11/18 14:29:11;;;;;;;3.05;0.60;;;;;;;;;;5042988;28;20033;-81
2023/11/18 14:31:37;;;;;;;2.58;1.17;;;;;;;;;;5024038;28;20189;-80
2023/11/18 14:34:03;;;;;;;2.45;0.95;;;;;;;;;;5018215;28;20036;-80
2023/11/18 14:36:28;;;;;;;2.15;0.95;;;;;;;;;;5042723;28;20037;-81
2023/11/18 14:38:54;;;;;;;1.75;0.80;;;;;;;;;;5025788;28;20138;-80
2023/11/18 14:41:22;;;;;;;2.17;1.00;;;;;;;;;;5045704;28;20041;-78
2023/11/18 14:43:47;;;;;;;2.25;0.88;;;;;;;;;;5030359;28;20089;-78
2023/11/18 14:46:13;;;;;;;1.83;0.77;;;;;;;;;;5028322;28;20053;-77